• Join FlightAware (Why Join?)
  • Login
  • US Flag 
03:05PM EDT


 

Airport Tracker/Info


-or-


 

Live Flight TrackerFlight Track Log ✈ SWA1035 ✈ 02-May-2013 ✈ KMHT - KTPA

Flight Track Log - Related Links

Times and Time Zones

All times are in EDT time to prevent confusion due to time zone crossing. See the SWA1035 flight status page for this flight to view local times or setup timezone preferences in your user account.

Time Position Orientation Groundspeed Altitude Reporting Facility
EDT Latitude Longitude Course Direction KTS MPH feet Rate Location/Type
07:09AM 42.9500 -71.4167 20° North 163 188 1,200  Level KA90
07:10AM 42.9814 -71.4014 20° North 238 274 2,400 1,860 Climbing Boston Center
07:11AM 43.0247 -71.3636 33° Northeast 244 281 4,300 3,000 Climbing Boston Center
07:12AM 43.0403 -71.2497 79° East 239 275 8,400 3,180 Climbing Boston Center
07:13AM 43.0539 -71.1586 78° East 254 292 10,700 2,400 Climbing Boston Center
07:14AM 43.0544 -71.0308 90° East 292 336 13,300 2,460 Climbing Boston Center
07:15AM 42.9683 -70.9872 160° South 296 341 15,700 2,340 Climbing Boston Center
07:16AM 42.8494 -70.9647 172° South 358 412 18,000 1,920 Climbing Boston Center
07:17AM 42.7372 -71.0042 194° South 411 473 20,000 2,340 Climbing Boston Center
07:18AM 42.5964 -71.0750 200° South 437 503 23,200 2,580 Climbing Boston Center
07:19AM 42.4722 -71.1339 199° South 450 518 25,200 1,860 Climbing Boston Center
07:20AM 42.3922 -71.2622 230° Southwest 438 504 27,000 1,740 Climbing Boston Center
07:21AM 42.3417 -71.4261 247° West 454 522 28,700 1,500 Climbing Boston Center
07:22AM 42.2908 -71.5756 245° Southwest 466 536 30,100 1,440 Climbing Boston Center
07:23AM 42.2378 -71.7447 247° West 477 549 31,600 1,500 Climbing Boston Center
07:24AM 42.1783 -71.9303 247° West 490 564 33,100 1,500 Climbing Boston Center
07:25AM 42.1228 -72.1014 246° West 500 575 34,600 1,560 Climbing Boston Center
07:26AM 42.0439 -72.2500 234° Southwest 500 575 36,300 1,680 Climbing Boston Center
07:27AM 41.9628 -72.3925 233° Southwest 494 568 38,000 840 Climbing Boston Center
07:28AM 41.8814 -72.5350 233° Southwest 489 563 38,000  Level Boston Center
07:29AM 41.8144 -72.6575 234° Southwest 483 556 38,000  Level Boston Center
07:30AM 41.7225 -72.8128 232° Southwest 483 556 38,000  Level Boston Center
07:31AM 41.6447 -72.9539 234° Southwest 483 556 38,000  Level Boston Center
07:32AM 41.5650 -73.0922 232° Southwest 483 556 38,000  Level Boston Center
07:33AM 41.5164 -73.1803 234° Southwest 473 544 38,000 -540 Level Boston Center
07:34AM 41.4214 -73.3481 233° Southwest 473 544 37,000 -540 Descending Boston Center
07:35AM 41.4097 -73.4836 263° West 455 524 37,000  Level Boston Center
07:37AM 41.5722 -73.6522 322° Northwest 362 417 37,000  Level New York Center
07:38AM 41.5578 -73.8097 263° West 376 433 37,000  Level New York Center
07:39AM 41.4261 -73.8258 185° South 293 337 37,000  Level New York Center
07:40AM 41.2958 -73.7894 168° South 358 412 37,000  Level New York Center
07:41AM 41.1664 -73.8031 185° South 425 489 37,000  Level New York Center
07:42AM 41.0758 -73.9256 226° Southwest 429 494 37,100 480 Climbing New York Center
07:43AM 40.9972 -74.0592 232° Southwest 436 502 38,000 420 Climbing New York Center
07:44AM 40.9075 -74.2031 231° Southwest 461 531 38,000  Level New York Center
07:45AM 40.8308 -74.3336 232° Southwest 468 539 38,000  Level New York Center
07:46AM 40.7517 -74.4636 231° Southwest 463 533 38,000  Level New York Center
07:47AM 40.6747 -74.5936 232° Southwest 458 527 38,000  Level New York Center
07:48AM 40.5933 -74.7256 231° Southwest 463 533 38,000  Level New York Center
07:49AM 40.5100 -74.8492 228° Southwest 463 533 38,000  Level New York Center
07:50AM 40.4244 -74.9694 227° Southwest 463 533 38,000  Level New York Center
07:51AM 40.3389 -75.0894 227° Southwest 458 527 38,000  Level New York Center
07:52AM 40.2528 -75.2147 228° Southwest 458 527 38,000  Level New York Center
07:53AM 40.1650 -75.3342 226° Southwest 458 527 38,000  Level New York Center
07:54AM 40.0856 -75.4456 227° Southwest 458 527 38,000  Level New York Center
07:55AM 39.9972 -75.5642 226° Southwest 458 527 38,000  Level New York Center
07:56AM 39.9131 -75.6883 229° Southwest 458 527 38,000  Level New York Center
07:57AM 39.8347 -75.8128 231° Southwest 458 527 38,000  Level New York Center
07:58AM 39.7586 -75.9369 231° Southwest 453 521 38,000  Level New York Center
07:59AM 39.6292 -76.1358 230° Southwest 451 519 38,000  Level Washington Center
08:00AM 39.5514 -76.2589 231° Southwest 451 519 38,000  Level Washington Center
08:01AM 39.4694 -76.3792 229° Southwest 451 519 38,000  Level Washington Center
08:02AM 39.3956 -76.5019 232° Southwest 451 519 38,000  Level Washington Center
08:03AM 39.3111 -76.6217 228° Southwest 451 519 38,000  Level Washington Center
08:04AM 39.2331 -76.7464 231° Southwest 451 519 38,000  Level Washington Center
08:05AM 39.1547 -76.8683 230° Southwest 451 519 38,000  Level Washington Center
08:06AM 39.0742 -76.9925 230° Southwest 451 519 38,000  Level Washington Center
08:07AM 38.9853 -77.1031 224° Southwest 456 525 38,000  Level Washington Center
08:08AM 38.8881 -77.2078 220° Southwest 451 519 38,000  Level Washington Center
08:09AM 38.7928 -77.3122 221° Southwest 456 525 38,000  Level Washington Center
08:10AM 38.6972 -77.4192 221° Southwest 461 531 38,000  Level Washington Center
08:11AM 38.5978 -77.5256 220° Southwest 461 531 38,000  Level Washington Center
08:12AM 38.4936 -77.6422 221° Southwest 461 531 38,000  Level Washington Center
08:13AM 38.3958 -77.7456 220° Southwest 467 537 38,000  Level Washington Center
08:14AM 38.3022 -77.8486 221° Southwest 454 522 38,000  Level Washington Center
08:15AM 38.2064 -77.9514 220° Southwest 454 522 38,000  Level Washington Center
08:16AM 38.1125 -78.0514 220° Southwest 449 517 38,000  Level Washington Center
08:17AM 38.0167 -78.1536 220° Southwest 449 517 38,000  Level Washington Center
08:18AM 37.9250 -78.2428 218° Southwest 438 504 38,000  Level Washington Center
08:19AM 37.8250 -78.3364 216° Southwest 438 504 38,000  Level Washington Center
08:20AM 37.7247 -78.4325 217° Southwest 450 518 38,000  Level Washington Center
08:21AM 37.6264 -78.5261 217° Southwest 450 518 38,000  Level Washington Center
08:22AM 37.5261 -78.6189 216° Southwest 450 518 38,000  Level Washington Center
08:23AM 37.4364 -78.7017 216° Southwest 450 518 38,000  Level Washington Center
08:24AM 37.3381 -78.7944 217° Southwest 450 518 38,000  Level Washington Center
08:25AM 37.2394 -78.8842 216° Southwest 445 512 38,000  Level Washington Center
08:26AM 37.1411 -78.9739 216° Southwest 439 505 38,000  Level Washington Center
08:27AM 37.0447 -79.0633 217° Southwest 439 505 38,000  Level Washington Center
08:28AM 36.9394 -79.1597 216° Southwest 439 505 38,000  Level Washington Center
08:29AM 36.8450 -79.2489 217° Southwest 439 505 38,000  Level Washington Center
08:30AM 36.7464 -79.3375 216° Southwest 439 505 38,000  Level Washington Center
08:31AM 36.6517 -79.4261 217° Southwest 439 505 38,000  Level Washington Center
08:32AM 36.5550 -79.5144 216° Southwest 439 505 38,000  Level Washington Center
08:34AM 36.4233 -79.6319 216° Southwest 453 521 38,000  Level Atlanta Center
08:35AM 36.3142 -79.7281 215° Southwest 448 516 38,000  Level Atlanta Center
08:36AM 36.2172 -79.8208 218° Southwest 442 509 38,000  Level Atlanta Center
08:37AM 36.1200 -79.9056 215° Southwest 442 509 38,000  Level Atlanta Center
08:38AM 36.0206 -79.9875 214° Southwest 442 509 38,000  Level Atlanta Center
08:39AM 35.9181 -80.0389 202° Southwest 435 501 38,000  Level Atlanta Center
08:40AM 35.8072 -80.0931 202° Southwest 435 501 38,000  Level Atlanta Center
08:41AM 35.6922 -80.1497 202° Southwest 440 506 38,000  Level Atlanta Center
08:42AM 35.5833 -80.2083 204° Southwest 440 506 38,000  Level Atlanta Center
08:43AM 35.4744 -80.2644 203° Southwest 435 501 38,000  Level Atlanta Center
08:44AM 35.3594 -80.3233 203° Southwest 435 501 38,000  Level Atlanta Center
08:45AM 35.2506 -80.3764 202° Southwest 435 501 38,000  Level Atlanta Center
08:47AM 34.9883 -80.5033 202° Southwest 425 489 38,000  Level Jacksonville Center
08:48AM 34.8786 -80.5569 202° Southwest 425 489 38,000  Level Jacksonville Center
08:49AM 34.7775 -80.6103 203° Southwest 425 489 38,000  Level Jacksonville Center
08:50AM 34.6658 -80.6661 202° Southwest 420 483 38,000  Level Jacksonville Center
08:51AM 34.5542 -80.7169 201° Southwest 435 501 38,000  Level Jacksonville Center
08:52AM 34.4569 -80.7622 201° Southwest 435 501 38,000  Level Jacksonville Center
08:53AM 34.3472 -80.8178 203° Southwest 424 488 38,000  Level Jacksonville Center
08:54AM 34.2333 -80.8758 203° Southwest 417 480 38,000  Level Jacksonville Center
08:55AM 34.1258 -80.9308 203° Southwest 412 474 38,000  Level Jacksonville Center
08:56AM 34.0181 -80.9808 201° Southwest 412 474 38,000  Level Jacksonville Center
08:57AM 33.9103 -81.0308 201° Southwest 417 480 38,000  Level Jacksonville Center
08:58AM 33.8006 -81.0806 201° Southwest 417 480 38,000  Level Jacksonville Center
08:59AM 33.7031 -81.1325 204° Southwest 417 480 38,000  Level Jacksonville Center
09:00AM 33.5953 -81.1869 203° Southwest 417 480 38,000  Level Jacksonville Center
09:01AM 33.4875 -81.2389 202° Southwest 417 480 38,000  Level Jacksonville Center
09:02AM 33.3797 -81.2956 204° Southwest 417 480 38,000  Level Jacksonville Center
09:03AM 33.2697 -81.3447 200° South 417 480 38,000  Level Jacksonville Center
09:04AM 33.1658 -81.3961 202° Southwest 417 480 38,000  Level Jacksonville Center
09:05AM 33.0600 -81.4475 202° Southwest 412 474 38,000  Level Jacksonville Center
09:06AM 32.9522 -81.5014 203° Southwest 417 480 38,000  Level Jacksonville Center
09:07AM 32.8464 -81.5550 203° Southwest 417 480 38,000  Level Jacksonville Center
09:08AM 32.7403 -81.6058 202° Southwest 412 474 38,000  Level Jacksonville Center
09:09AM 32.6239 -81.6592 201° Southwest 405 466 38,000  Level Jacksonville Center
09:10AM 32.5200 -81.7100 202° Southwest 410 472 38,000  Level Jacksonville Center
09:11AM 32.4225 -81.7556 202° Southwest 415 478 38,000  Level Jacksonville Center
09:12AM 32.3061 -81.8111 202° Southwest 415 478 38,000  Level Jacksonville Center
09:13AM 32.1978 -81.8664 203° Southwest 415 478 38,000  Level Jacksonville Center
09:14AM 32.1000 -81.9092 200° South 415 478 38,000  Level Jacksonville Center
09:15AM 31.9836 -81.9642 202° Southwest 415 478 38,000  Level Jacksonville Center
09:16AM 31.8836 -81.9947 195° South 410 472 38,000  Level Jacksonville Center
09:17AM 31.7564 -82.0131 187° South 416 479 38,000  Level Jacksonville Center
09:18AM 31.6439 -82.0336 189° South 421 484 38,000  Level Jacksonville Center
09:19AM 31.5269 -82.0567 190° South 426 490 38,000  Level Jacksonville Center
09:20AM 31.4122 -82.0722 187° South 426 490 38,000  Level Jacksonville Center
09:21AM 31.2997 -82.0950 190° South 426 490 38,000  Level Jacksonville Center
09:22AM 31.1828 -82.1106 186° South 426 490 38,000  Level Jacksonville Center
09:23AM 31.0681 -82.1261 187° South 426 490 38,000  Level Jacksonville Center
09:24AM 30.9533 -82.1464 189° South 426 490 38,000  Level Jacksonville Center
09:25AM 30.8408 -82.1642 188° South 420 483 38,000  Level Jacksonville Center
09:26AM 30.7239 -82.1822 188° South 420 483 38,000  Level Jacksonville Center
09:27AM 30.6092 -82.1997 187° South 420 483 38,000  Level Jacksonville Center
09:28AM 30.4964 -82.2128 186° South 425 489 38,000  Level Jacksonville Center
09:29AM 30.3797 -82.2303 187° South 425 489 38,000  Level Jacksonville Center
09:30AM 30.2628 -82.2506 189° South 425 489 38,000  Level Jacksonville Center
09:31AM 30.1481 -82.2681 188° South 425 489 38,000 -600 Level Jacksonville Center
09:32AM 30.0292 -82.2881 188° South 425 489 36,800 -2,040 Descending Jacksonville Center
09:33AM 29.9122 -82.3128 190° South 425 489 34,000 -2,880 Descending Jacksonville Center
09:34AM 29.7956 -82.3300 187° South 425 489 31,100 -2,700 Descending Jacksonville Center
09:35AM 29.6786 -82.3428 185° South 425 489 28,700 -2,100 Descending Jacksonville Center
09:36AM 29.5619 -82.3553 185° South 425 489 26,900 -1,380 Descending Jacksonville Center
09:37AM 29.4511 -82.3417 174° South 414 476 26,000 -960 Descending Jacksonville Center
09:38AM 29.3383 -82.3303 175° South 409 471 25,000 -1,500 Descending Jacksonville Center
09:39AM 29.2297 -82.3167 174° South 404 465 23,000 -2,100 Descending Jacksonville Center
09:40AM 29.1253 -82.3031 174° South 399 459 20,800 -2,100 Descending Jacksonville Center
09:41AM 29.0250 -82.2917 174° South 385 443 18,800 -1,800 Descending Jacksonville Center
09:42AM 28.9372 -82.2828 175° South 369 425 17,200 -1,860 Descending Jacksonville Center
09:43AM 28.8372 -82.2717 174° South 364 419 15,100 -1,620 Descending Jacksonville Center
09:45AM 28.6667 -82.2667 179° South 318 366 13,000 -840 Descending Tampa TRACON
09:46AM 28.6000 -82.2500 168° South 305 351 13,000 -900 Level Tampa TRACON
09:47AM 28.5167 -82.2500 180° South 304 350 11,400 -960 Descending Tampa TRACON
09:48AM 28.4167 -82.2500 180° South 303 349 11,000 -240 Descending Tampa TRACON
09:49AM 28.3333 -82.2833 199° South 289 333 11,000 -300 Level Tampa TRACON
09:50AM 28.2833 -82.3167 210° Southwest 257 296 10,500 -900 Descending Tampa TRACON
09:51AM 28.2333 -82.3667 221° Southwest 247 284 9,400 -1,020 Descending Tampa TRACON
09:52AM 28.1833 -82.4167 221° Southwest 239 275 8,500 -960 Descending Tampa TRACON
09:53AM 28.1167 -82.4167 180° South 235 270 7,500 -1,140 Descending Tampa TRACON
09:54AM 28.0500 -82.4167 180° South 241 277 6,300 -1,140 Descending Tampa TRACON
09:55AM 27.9833 -82.4167 180° South 236 272 5,300 -660 Descending Tampa TRACON
09:56AM 27.9167 -82.4167 180° South 232 267 5,000 -600 Descending Tampa TRACON
09:57AM 27.8500 -82.4333 192° South 228 262 4,100 -600 Descending Tampa TRACON
09:58AM 27.8000 -82.4500 196° South 226 260 3,900 -780 Descending Tampa TRACON
09:59AM 27.7667 -82.5167 241° Southwest 235 270 2,600 -720 Descending Tampa TRACON
10:00AM 27.8167 -82.5500 329° Northwest 214 246 2,500 -420 Descending Tampa TRACON
10:01AM 27.8667 -82.5500 360° North 205 236 1,900 -840 Descending Tampa TRACON
10:02AM 27.9167 -82.5500 360° North 160 184 900 -840 Descending Tampa TRACON
10:03AM 27.9500 -82.5500 360° North 140 161 200 -720 Descending Tampa TRACON
10:05AM 27.9667 -82.5167 350° North  Level FlightAware Approximate
10:12AM 27.9755 -82.5332 350° North  Level Estimated